sensor_id;sensor_type;location;lat;lon;timestamp;P1;durP1;ratioP1;P2;durP2;ratioP2
3095;SDS011;1558;42.700;23.360;2022-09-09T00:00:41;10.37;;;9.40;;
3095;SDS011;1558;42.700;23.360;2022-09-09T00:03:16;10.80;;;9.90;;
3095;SDS011;1558;42.700;23.360;2022-09-09T00:05:50;11.00;;;9.90;;
3095;SDS011;1558;42.700;23.360;2022-09-09T00:08:28;9.93;;;9.23;;
3095;SDS011;1558;42.700;23.360;2022-09-09T00:11:07;10.63;;;9.63;;
3095;SDS011;1558;42.700;23.360;2022-09-09T00:13:39;10.03;;;9.23;;
3095;SDS011;1558;42.700;23.360;2022-09-09T00:16:15;10.47;;;9.50;;
3095;SDS011;1558;42.700;23.360;2022-09-09T00:18:49;10.37;;;9.37;;
3095;SDS011;1558;42.700;23.360;2022-09-09T00:21:23;10.83;;;9.93;;
3095;SDS011;1558;42.700;23.360;2022-09-09T00:23:58;10.73;;;9.70;;
3095;SDS011;1558;42.700;23.360;2022-09-09T00:26:34;10.10;;;9.10;;
3095;SDS011;1558;42.700;23.360;2022-09-09T00:29:10;10.23;;;9.23;;
3095;SDS011;1558;42.700;23.360;2022-09-09T00:31:47;10.50;;;9.70;;
3095;SDS011;1558;42.700;23.360;2022-09-09T00:34:16;11.27;;;10.17;;
3095;SDS011;1558;42.700;23.360;2022-09-09T00:36:49;10.87;;;10.03;;
3095;SDS011;1558;42.700;23.360;2022-09-09T00:39:22;11.33;;;10.17;;
3095;SDS011;1558;42.700;23.360;2022-09-09T00:42:01;12.83;;;10.93;;
3095;SDS011;1558;42.700;23.360;2022-09-09T00:44:44;11.93;;;10.83;;
3095;SDS011;1558;42.700;23.360;2022-09-09T00:47:33;11.77;;;10.77;;
3095;SDS011;1558;42.700;23.360;2022-09-09T00:50:17;12.03;;;10.67;;
3095;SDS011;1558;42.700;23.360;2022-09-09T00:52:59;11.33;;;10.33;;
3095;SDS011;1558;42.700;23.360;2022-09-09T00:55:40;13.63;;;12.33;;
3095;SDS011;1558;42.700;23.360;2022-09-09T00:58:17;11.70;;;10.80;;
3095;SDS011;1558;42.700;23.360;2022-09-09T01:00:46;12.53;;;10.80;;
3095;SDS011;1558;42.700;23.360;2022-09-09T01:03:25;12.87;;;10.47;;
3095;SDS011;1558;42.700;23.360;2022-09-09T01:06:01;12.13;;;11.10;;
3095;SDS011;1558;42.700;23.360;2022-09-09T01:11:27;11.33;;;10.33;;
3095;SDS011;1558;42.700;23.360;2022-09-09T01:14:11;11.70;;;10.63;;
3095;SDS011;1558;42.700;23.360;2022-09-09T01:16:52;12.17;;;10.63;;
3095;SDS011;1558;42.700;23.360;2022-09-09T01:19:24;11.87;;;10.67;;
3095;SDS011;1558;42.700;23.360;2022-09-09T01:22:01;11.67;;;10.57;;
3095;SDS011;1558;42.700;23.360;2022-09-09T01:24:38;11.63;;;10.57;;
3095;SDS011;1558;42.700;23.360;2022-09-09T01:27:13;11.17;;;10.17;;
3095;SDS011;1558;42.700;23.360;2022-09-09T01:29:44;12.20;;;11.10;;
3095;SDS011;1558;42.700;23.360;2022-09-09T01:35:06;11.20;;;10.13;;
3095;SDS011;1558;42.700;23.360;2022-09-09T01:37:38;11.00;;;10.10;;
3095;SDS011;1558;42.700;23.360;2022-09-09T01:40:06;11.73;;;10.63;;
3095;SDS011;1558;42.700;23.360;2022-09-09T01:42:36;11.83;;;10.93;;
3095;SDS011;1558;42.700;23.360;2022-09-09T01:45:05;12.53;;;11.53;;
3095;SDS011;1558;42.700;23.360;2022-09-09T01:47:34;12.47;;;11.17;;
3095;SDS011;1558;42.700;23.360;2022-09-09T01:50:03;12.50;;;11.37;;
3095;SDS011;1558;42.700;23.360;2022-09-09T01:52:31;13.20;;;11.90;;
3095;SDS011;1558;42.700;23.360;2022-09-09T01:55:03;12.63;;;11.50;;
3095;SDS011;1558;42.700;23.360;2022-09-09T01:57:33;13.40;;;12.07;;
3095;SDS011;1558;42.700;23.360;2022-09-09T02:00:09;13.40;;;12.20;;
3095;SDS011;1558;42.700;23.360;2022-09-09T02:02:42;12.53;;;11.53;;
3095;SDS011;1558;42.700;23.360;2022-09-09T02:05:17;12.10;;;11.03;;
3095;SDS011;1558;42.700;23.360;2022-09-09T02:07:57;13.17;;;11.87;;
3095;SDS011;1558;42.700;23.360;2022-09-09T02:10:31;14.03;;;12.53;;
3095;SDS011;1558;42.700;23.360;2022-09-09T02:13:05;13.53;;;11.77;;
3095;SDS011;1558;42.700;23.360;2022-09-09T02:15:39;13.00;;;11.83;;
3095;SDS011;1558;42.700;23.360;2022-09-09T02:18:15;14.50;;;12.20;;
3095;SDS011;1558;42.700;23.360;2022-09-09T02:20:49;13.70;;;12.37;;
3095;SDS011;1558;42.700;23.360;2022-09-09T02:23:19;13.03;;;11.83;;
3095;SDS011;1558;42.700;23.360;2022-09-09T02:25:48;13.40;;;12.13;;
3095;SDS011;1558;42.700;23.360;2022-09-09T02:28:20;13.17;;;11.97;;
3095;SDS011;1558;42.700;23.360;2022-09-09T02:30:51;13.83;;;11.87;;
3095;SDS011;1558;42.700;23.360;2022-09-09T02:33:22;14.13;;;12.73;;
3095;SDS011;1558;42.700;23.360;2022-09-09T02:35:54;13.67;;;12.40;;
3095;SDS011;1558;42.700;23.360;2022-09-09T02:38:28;14.37;;;12.40;;
3095;SDS011;1558;42.700;23.360;2022-09-09T02:41:01;15.43;;;13.97;;
3095;SDS011;1558;42.700;23.360;2022-09-09T02:43:32;14.33;;;12.93;;
3095;SDS011;1558;42.700;23.360;2022-09-09T02:46:03;14.40;;;13.00;;
3095;SDS011;1558;42.700;23.360;2022-09-09T02:48:42;14.57;;;13.17;;
3095;SDS011;1558;42.700;23.360;2022-09-09T02:51:18;14.60;;;13.10;;
3095;SDS011;1558;42.700;23.360;2022-09-09T02:53:53;15.40;;;13.80;;
3095;SDS011;1558;42.700;23.360;2022-09-09T02:56:27;15.37;;;14.17;;
3095;SDS011;1558;42.700;23.360;2022-09-09T02:59:04;15.83;;;14.43;;
3095;SDS011;1558;42.700;23.360;2022-09-09T03:01:32;15.73;;;14.33;;
3095;SDS011;1558;42.700;23.360;2022-09-09T03:04:02;15.57;;;14.13;;
3095;SDS011;1558;42.700;23.360;2022-09-09T03:06:31;15.43;;;14.03;;
3095;SDS011;1558;42.700;23.360;2022-09-09T03:08:59;15.80;;;14.17;;
3095;SDS011;1558;42.700;23.360;2022-09-09T03:11:28;15.77;;;14.50;;
3095;SDS011;1558;42.700;23.360;2022-09-09T03:13:56;16.00;;;14.50;;
3095;SDS011;1558;42.700;23.360;2022-09-09T03:16:25;16.07;;;14.57;;
3095;SDS011;1558;42.700;23.360;2022-09-09T03:18:53;19.10;;;17.37;;
3095;SDS011;1558;42.700;23.360;2022-09-09T03:21:21;20.30;;;18.30;;
3095;SDS011;1558;42.700;23.360;2022-09-09T03:23:49;18.60;;;16.93;;
3095;SDS011;1558;42.700;23.360;2022-09-09T03:26:17;17.63;;;15.93;;
3095;SDS011;1558;42.700;23.360;2022-09-09T03:28:45;16.23;;;14.73;;
3095;SDS011;1558;42.700;23.360;2022-09-09T03:31:13;17.77;;;16.17;;
3095;SDS011;1558;42.700;23.360;2022-09-09T03:33:42;17.73;;;16.20;;
3095;SDS011;1558;42.700;23.360;2022-09-09T03:36:10;17.57;;;15.93;;
3095;SDS011;1558;42.700;23.360;2022-09-09T03:38:38;16.97;;;15.70;;
3095;SDS011;1558;42.700;23.360;2022-09-09T03:41:06;16.53;;;15.30;;
3095;SDS011;1558;42.700;23.360;2022-09-09T03:43:35;16.63;;;14.90;;
3095;SDS011;1558;42.700;23.360;2022-09-09T03:46:03;18.00;;;15.93;;
3095;SDS011;1558;42.700;23.360;2022-09-09T03:48:32;18.23;;;16.47;;
3095;SDS011;1558;42.700;23.360;2022-09-09T03:51:01;17.60;;;15.80;;
3095;SDS011;1558;42.700;23.360;2022-09-09T03:53:29;18.23;;;16.43;;
3095;SDS011;1558;42.700;23.360;2022-09-09T03:55:58;17.93;;;16.10;;
3095;SDS011;1558;42.700;23.360;2022-09-09T03:58:27;17.23;;;15.57;;
3095;SDS011;1558;42.700;23.360;2022-09-09T04:00:56;17.77;;;16.13;;
3095;SDS011;1558;42.700;23.360;2022-09-09T04:03:25;17.23;;;15.73;;
3095;SDS011;1558;42.700;23.360;2022-09-09T04:05:54;19.83;;;17.83;;
3095;SDS011;1558;42.700;23.360;2022-09-09T04:08:24;18.27;;;16.47;;
3095;SDS011;1558;42.700;23.360;2022-09-09T04:10:53;17.77;;;16.17;;
3095;SDS011;1558;42.700;23.360;2022-09-09T04:13:25;17.30;;;15.70;;
3095;SDS011;1558;42.700;23.360;2022-09-09T04:15:53;18.30;;;16.47;;
3095;SDS011;1558;42.700;23.360;2022-09-09T04:18:23;18.20;;;16.40;;
3095;SDS011;1558;42.700;23.360;2022-09-09T04:20:52;17.70;;;16.10;;
3095;SDS011;1558;42.700;23.360;2022-09-09T04:23:20;21.10;;;16.53;;
3095;SDS011;1558;42.700;23.360;2022-09-09T04:25:52;18.03;;;16.37;;
3095;SDS011;1558;42.700;23.360;2022-09-09T04:28:22;19.40;;;17.20;;
3095;SDS011;1558;42.700;23.360;2022-09-09T04:30:51;17.87;;;16.13;;
3095;SDS011;1558;42.700;23.360;2022-09-09T04:33:19;17.67;;;16.07;;
3095;SDS011;1558;42.700;23.360;2022-09-09T04:35:48;17.57;;;16.10;;
3095;SDS011;1558;42.700;23.360;2022-09-09T04:38:20;17.17;;;15.40;;
3095;SDS011;1558;42.700;23.360;2022-09-09T04:40:49;17.93;;;16.00;;
3095;SDS011;1558;42.700;23.360;2022-09-09T04:43:21;17.13;;;14.27;;
3095;SDS011;1558;42.700;23.360;2022-09-09T04:45:52;17.10;;;13.73;;
3095;SDS011;1558;42.700;23.360;2022-09-09T04:48:20;16.03;;;14.43;;
3095;SDS011;1558;42.700;23.360;2022-09-09T04:50:55;12.87;;;11.73;;
3095;SDS011;1558;42.700;23.360;2022-09-09T04:53:24;14.87;;;12.43;;
3095;SDS011;1558;42.700;23.360;2022-09-09T04:55:52;14.13;;;12.77;;
3095;SDS011;1558;42.700;23.360;2022-09-09T04:58:29;14.33;;;13.00;;
3095;SDS011;1558;42.700;23.360;2022-09-09T05:01:02;14.43;;;13.17;;
3095;SDS011;1558;42.700;23.360;2022-09-09T05:03:31;16.93;;;13.50;;
3095;SDS011;1558;42.700;23.360;2022-09-09T05:06:03;13.70;;;12.27;;
3095;SDS011;1558;42.700;23.360;2022-09-09T05:08:32;13.40;;;12.30;;
3095;SDS011;1558;42.700;23.360;2022-09-09T05:11:00;13.38;;;12.13;;
3095;SDS011;1558;42.700;23.360;2022-09-09T05:13:30;13.07;;;11.95;;
3095;SDS011;1558;42.700;23.360;2022-09-09T05:16:01;16.02;;;14.32;;
3095;SDS011;1558;42.700;23.360;2022-09-09T05:18:29;13.98;;;12.52;;
3095;SDS011;1558;42.700;23.360;2022-09-09T05:20:58;13.10;;;11.73;;
3095;SDS011;1558;42.700;23.360;2022-09-09T05:23:27;19.67;;;13.75;;
3095;SDS011;1558;42.700;23.360;2022-09-09T05:25:55;13.98;;;12.57;;
3095;SDS011;1558;42.700;23.360;2022-09-09T05:28:23;14.18;;;12.80;;
3095;SDS011;1558;42.700;23.360;2022-09-09T05:30:57;13.93;;;12.55;;
3095;SDS011;1558;42.700;23.360;2022-09-09T05:33:27;16.77;;;12.63;;
3095;SDS011;1558;42.700;23.360;2022-09-09T05:35:56;14.43;;;11.98;;
3095;SDS011;1558;42.700;23.360;2022-09-09T05:38:25;14.88;;;13.57;;
3095;SDS011;1558;42.700;23.360;2022-09-09T05:40:54;17.92;;;12.93;;
3095;SDS011;1558;42.700;23.360;2022-09-09T05:43:23;13.38;;;12.30;;
3095;SDS011;1558;42.700;23.360;2022-09-09T05:46:02;16.02;;;13.30;;
3095;SDS011;1558;42.700;23.360;2022-09-09T05:48:32;14.23;;;13.10;;
3095;SDS011;1558;42.700;23.360;2022-09-09T05:51:01;19.02;;;16.83;;
3095;SDS011;1558;42.700;23.360;2022-09-09T05:53:30;15.63;;;12.52;;
3095;SDS011;1558;42.700;23.360;2022-09-09T05:56:01;15.02;;;13.52;;
3095;SDS011;1558;42.700;23.360;2022-09-09T05:58:30;18.92;;;13.45;;
3095;SDS011;1558;42.700;23.360;2022-09-09T06:01:05;10.57;;;9.48;;
3095;SDS011;1558;42.700;23.360;2022-09-09T06:03:34;10.60;;;9.55;;
3095;SDS011;1558;42.700;23.360;2022-09-09T06:06:03;11.82;;;10.73;;
3095;SDS011;1558;42.700;23.360;2022-09-09T06:08:32;12.07;;;10.68;;
3095;SDS011;1558;42.700;23.360;2022-09-09T06:11:03;14.77;;;9.70;;
3095;SDS011;1558;42.700;23.360;2022-09-09T06:13:32;11.10;;;9.02;;
3095;SDS011;1558;42.700;23.360;2022-09-09T06:16:01;7.00;;;6.35;;
3095;SDS011;1558;42.700;23.360;2022-09-09T06:18:31;8.27;;;6.72;;
3095;SDS011;1558;42.700;23.360;2022-09-09T06:20:59;7.13;;;6.53;;
3095;SDS011;1558;42.700;23.360;2022-09-09T06:23:30;10.88;;;7.22;;
3095;SDS011;1558;42.700;23.360;2022-09-09T06:26:03;7.60;;;6.90;;
3095;SDS011;1558;42.700;23.360;2022-09-09T06:28:32;8.43;;;7.65;;
3095;SDS011;1558;42.700;23.360;2022-09-09T06:31:01;8.93;;;6.75;;
3095;SDS011;1558;42.700;23.360;2022-09-09T06:33:32;8.10;;;7.28;;
3095;SDS011;1558;42.700;23.360;2022-09-09T06:36:01;7.88;;;7.20;;
3095;SDS011;1558;42.700;23.360;2022-09-09T06:38:30;7.57;;;6.88;;
3095;SDS011;1558;42.700;23.360;2022-09-09T06:40:59;7.97;;;7.10;;
3095;SDS011;1558;42.700;23.360;2022-09-09T06:43:28;6.95;;;6.38;;
3095;SDS011;1558;42.700;23.360;2022-09-09T06:45:57;9.52;;;8.27;;
3095;SDS011;1558;42.700;23.360;2022-09-09T06:48:26;7.32;;;6.68;;
3095;SDS011;1558;42.700;23.360;2022-09-09T06:51:03;7.90;;;6.47;;
3095;SDS011;1558;42.700;23.360;2022-09-09T06:53:33;8.95;;;6.78;;
3095;SDS011;1558;42.700;23.360;2022-09-09T06:56:02;7.22;;;6.47;;
3095;SDS011;1558;42.700;23.360;2022-09-09T06:58:46;7.20;;;6.47;;
3095;SDS011;1558;42.700;23.360;2022-09-09T07:01:15;6.93;;;6.28;;
3095;SDS011;1558;42.700;23.360;2022-09-09T07:03:45;6.78;;;6.28;;
3095;SDS011;1558;42.700;23.360;2022-09-09T07:06:18;7.22;;;6.63;;
3095;SDS011;1558;42.700;23.360;2022-09-09T07:08:48;7.75;;;7.22;;
3095;SDS011;1558;42.700;23.360;2022-09-09T07:11:23;7.80;;;7.10;;
3095;SDS011;1558;42.700;23.360;2022-09-09T07:13:53;8.70;;;6.82;;
3095;SDS011;1558;42.700;23.360;2022-09-09T07:16:22;7.00;;;6.50;;
3095;SDS011;1558;42.700;23.360;2022-09-09T07:18:51;7.15;;;6.20;;
3095;SDS011;1558;42.700;23.360;2022-09-09T07:21:25;7.55;;;6.53;;
3095;SDS011;1558;42.700;23.360;2022-09-09T07:23:54;6.97;;;6.32;;
3095;SDS011;1558;42.700;23.360;2022-09-09T07:26:23;6.65;;;6.13;;
3095;SDS011;1558;42.700;23.360;2022-09-09T07:28:52;6.75;;;6.25;;
3095;SDS011;1558;42.700;23.360;2022-09-09T07:31:22;7.22;;;6.50;;
3095;SDS011;1558;42.700;23.360;2022-09-09T07:33:52;6.90;;;6.22;;
3095;SDS011;1558;42.700;23.360;2022-09-09T07:36:21;7.80;;;6.80;;
3095;SDS011;1558;42.700;23.360;2022-09-09T07:38:56;9.15;;;6.63;;
3095;SDS011;1558;42.700;23.360;2022-09-09T07:41:26;8.60;;;7.53;;
3095;SDS011;1558;42.700;23.360;2022-09-09T07:43:56;7.55;;;6.53;;
3095;SDS011;1558;42.700;23.360;2022-09-09T07:46:25;7.60;;;6.65;;
3095;SDS011;1558;42.700;23.360;2022-09-09T07:48:54;7.32;;;6.72;;
3095;SDS011;1558;42.700;23.360;2022-09-09T07:51:25;7.55;;;6.85;;
3095;SDS011;1558;42.700;23.360;2022-09-09T07:53:57;7.60;;;6.72;;
3095;SDS011;1558;42.700;23.360;2022-09-09T07:56:26;9.20;;;7.40;;
3095;SDS011;1558;42.700;23.360;2022-09-09T07:58:55;11.98;;;7.45;;
3095;SDS011;1558;42.700;23.360;2022-09-09T08:01:25;7.05;;;6.45;;
3095;SDS011;1558;42.700;23.360;2022-09-09T08:03:57;9.90;;;7.57;;
3095;SDS011;1558;42.700;23.360;2022-09-09T08:06:27;7.43;;;6.70;;
3095;SDS011;1558;42.700;23.360;2022-09-09T08:08:58;7.38;;;6.72;;
3095;SDS011;1558;42.700;23.360;2022-09-09T08:11:27;12.30;;;6.88;;
3095;SDS011;1558;42.700;23.360;2022-09-09T08:14:03;7.22;;;6.63;;
3095;SDS011;1558;42.700;23.360;2022-09-09T08:16:31;8.73;;;7.45;;
3095;SDS011;1558;42.700;23.360;2022-09-09T08:19:03;9.32;;;7.18;;
3095;SDS011;1558;42.700;23.360;2022-09-09T08:21:31;9.73;;;8.05;;
3095;SDS011;1558;42.700;23.360;2022-09-09T08:24:01;7.90;;;7.15;;
3095;SDS011;1558;42.700;23.360;2022-09-09T08:26:31;7.47;;;6.78;;
3095;SDS011;1558;42.700;23.360;2022-09-09T08:29:02;9.15;;;7.25;;
3095;SDS011;1558;42.700;23.360;2022-09-09T08:31:32;8.27;;;7.57;;
3095;SDS011;1558;42.700;23.360;2022-09-09T08:34:01;9.18;;;6.80;;
3095;SDS011;1558;42.700;23.360;2022-09-09T08:36:31;7.75;;;7.00;;
3095;SDS011;1558;42.700;23.360;2022-09-09T08:39:02;8.52;;;7.03;;
3095;SDS011;1558;42.700;23.360;2022-09-09T08:41:37;7.85;;;6.82;;
3095;SDS011;1558;42.700;23.360;2022-09-09T08:44:14;9.82;;;7.43;;
3095;SDS011;1558;42.700;23.360;2022-09-09T08:46:56;7.50;;;6.70;;
3095;SDS011;1558;42.700;23.360;2022-09-09T08:49:48;7.22;;;6.60;;
3095;SDS011;1558;42.700;23.360;2022-09-09T08:52:28;7.78;;;7.00;;
3095;SDS011;1558;42.700;23.360;2022-09-09T08:55:03;7.57;;;6.88;;
3095;SDS011;1558;42.700;23.360;2022-09-09T08:57:49;7.90;;;7.05;;
3095;SDS011;1558;42.700;23.360;2022-09-09T09:00:20;7.90;;;7.20;;
3095;SDS011;1558;42.700;23.360;2022-09-09T09:02:51;7.15;;;6.55;;
3095;SDS011;1558;42.700;23.360;2022-09-09T09:05:27;8.30;;;7.55;;
3095;SDS011;1558;42.700;23.360;2022-09-09T09:08:03;7.57;;;6.72;;
3095;SDS011;1558;42.700;23.360;2022-09-09T09:10:45;8.20;;;7.13;;
3095;SDS011;1558;42.700;23.360;2022-09-09T09:13:15;11.93;;;9.20;;
3095;SDS011;1558;42.700;23.360;2022-09-09T09:15:49;7.75;;;7.00;;
3095;SDS011;1558;42.700;23.360;2022-09-09T09:18:23;8.25;;;7.45;;
3095;SDS011;1558;42.700;23.360;2022-09-09T09:20:54;9.27;;;7.43;;
3095;SDS011;1558;42.700;23.360;2022-09-09T09:23:31;9.07;;;7.07;;
3095;SDS011;1558;42.700;23.360;2022-09-09T09:26:10;7.95;;;7.10;;
3095;SDS011;1558;42.700;23.360;2022-09-09T09:28:38;9.40;;;8.18;;
3095;SDS011;1558;42.700;23.360;2022-09-09T09:31:09;8.38;;;7.65;;
3095;SDS011;1558;42.700;23.360;2022-09-09T09:33:40;10.40;;;8.30;;
3095;SDS011;1558;42.700;23.360;2022-09-09T09:36:13;8.15;;;7.35;;
3095;SDS011;1558;42.700;23.360;2022-09-09T09:38:51;8.48;;;7.63;;
3095;SDS011;1558;42.700;23.360;2022-09-09T09:41:43;8.27;;;7.10;;
3095;SDS011;1558;42.700;23.360;2022-09-09T09:44:21;8.57;;;7.28;;
3095;SDS011;1558;42.700;23.360;2022-09-09T09:46:51;11.18;;;9.00;;
3095;SDS011;1558;42.700;23.360;2022-09-09T09:49:19;10.48;;;8.90;;
3095;SDS011;1558;42.700;23.360;2022-09-09T09:51:47;8.70;;;7.90;;
3095;SDS011;1558;42.700;23.360;2022-09-09T09:54:17;8.27;;;7.68;;
3095;SDS011;1558;42.700;23.360;2022-09-09T09:56:50;11.13;;;7.82;;
3095;SDS011;1558;42.700;23.360;2022-09-09T09:59:19;8.45;;;7.65;;
3095;SDS011;1558;42.700;23.360;2022-09-09T10:02:18;8.40;;;7.28;;
3095;SDS011;1558;42.700;23.360;2022-09-09T10:04:59;8.98;;;8.07;;
3095;SDS011;1558;42.700;23.360;2022-09-09T10:07:29;7.82;;;7.15;;
3095;SDS011;1558;42.700;23.360;2022-09-09T10:09:57;10.35;;;7.53;;
3095;SDS011;1558;42.700;23.360;2022-09-09T10:12:30;8.75;;;7.43;;
3095;SDS011;1558;42.700;23.360;2022-09-09T10:15:16;10.43;;;8.60;;
3095;SDS011;1558;42.700;23.360;2022-09-09T10:17:58;12.32;;;8.50;;
3095;SDS011;1558;42.700;23.360;2022-09-09T10:20:35;12.68;;;9.60;;
3095;SDS011;1558;42.700;23.360;2022-09-09T10:23:16;18.85;;;16.42;;
3095;SDS011;1558;42.700;23.360;2022-09-09T10:26:10;13.55;;;10.15;;
3095;SDS011;1558;42.700;23.360;2022-09-09T10:28:55;10.60;;;9.60;;
3095;SDS011;1558;42.700;23.360;2022-09-09T10:31:34;9.48;;;8.68;;
3095;SDS011;1558;42.700;23.360;2022-09-09T10:34:13;10.80;;;9.70;;
3095;SDS011;1558;42.700;23.360;2022-09-09T10:36:56;10.32;;;9.23;;
3095;SDS011;1558;42.700;23.360;2022-09-09T10:39:30;13.07;;;9.77;;
3095;SDS011;1558;42.700;23.360;2022-09-09T10:42:09;9.73;;;8.82;;
3095;SDS011;1558;42.700;23.360;2022-09-09T10:44:48;11.25;;;8.90;;
3095;SDS011;1558;42.700;23.360;2022-09-09T10:47:34;12.68;;;9.48;;
3095;SDS011;1558;42.700;23.360;2022-09-09T10:50:33;11.30;;;8.80;;
3095;SDS011;1558;42.700;23.360;2022-09-09T10:53:36;14.50;;;9.25;;
3095;SDS011;1558;42.700;23.360;2022-09-09T10:56:13;10.40;;;8.80;;
3095;SDS011;1558;42.700;23.360;2022-09-09T10:58:46;9.68;;;8.75;;
3095;SDS011;1558;42.700;23.360;2022-09-09T11:01:20;11.60;;;8.75;;
3095;SDS011;1558;42.700;23.360;2022-09-09T11:03:52;9.82;;;8.93;;
3095;SDS011;1558;42.700;23.360;2022-09-09T11:06:26;11.80;;;9.07;;
3095;SDS011;1558;42.700;23.360;2022-09-09T11:08:59;12.68;;;9.90;;
3095;SDS011;1558;42.700;23.360;2022-09-09T11:11:31;11.45;;;9.70;;
3095;SDS011;1558;42.700;23.360;2022-09-09T11:14:05;16.45;;;9.68;;
3095;SDS011;1558;42.700;23.360;2022-09-09T11:16:40;12.43;;;9.85;;
3095;SDS011;1558;42.700;23.360;2022-09-09T11:19:15;11.73;;;10.20;;
3095;SDS011;1558;42.700;23.360;2022-09-09T11:21:48;12.40;;;11.00;;
3095;SDS011;1558;42.700;23.360;2022-09-09T11:24:20;14.15;;;11.45;;
3095;SDS011;1558;42.700;23.360;2022-09-09T11:26:53;12.63;;;10.88;;
3095;SDS011;1558;42.700;23.360;2022-09-09T11:29:35;11.18;;;10.00;;
3095;SDS011;1558;42.700;23.360;2022-09-09T11:32:29;13.00;;;9.38;;
3095;SDS011;1558;42.700;23.360;2022-09-09T11:35:19;13.20;;;10.38;;
3095;SDS011;1558;42.700;23.360;2022-09-09T11:40:44;11.55;;;10.45;;
3095;SDS011;1558;42.700;23.360;2022-09-09T11:43:14;14.30;;;10.63;;
3095;SDS011;1558;42.700;23.360;2022-09-09T11:45:52;14.20;;;10.50;;
3095;SDS011;1558;42.700;23.360;2022-09-09T11:48:29;14.43;;;10.45;;
3095;SDS011;1558;42.700;23.360;2022-09-09T11:51:02;14.65;;;10.40;;
3095;SDS011;1558;42.700;23.360;2022-09-09T11:53:47;11.55;;;10.45;;
3095;SDS011;1558;42.700;23.360;2022-09-09T11:56:24;13.48;;;12.07;;
3095;SDS011;1558;42.700;23.360;2022-09-09T11:58:55;13.52;;;10.85;;
3095;SDS011;1558;42.700;23.360;2022-09-09T12:01:27;13.48;;;10.40;;
3095;SDS011;1558;42.700;23.360;2022-09-09T12:04:11;12.20;;;10.40;;
3095;SDS011;1558;42.700;23.360;2022-09-09T12:06:56;12.85;;;9.68;;
3095;SDS011;1558;42.700;23.360;2022-09-09T12:09:31;11.88;;;10.77;;
3095;SDS011;1558;42.700;23.360;2022-09-09T12:12:21;15.10;;;10.55;;
3095;SDS011;1558;42.700;23.360;2022-09-09T12:14:56;13.23;;;12.02;;
3095;SDS011;1558;42.700;23.360;2022-09-09T12:17:29;11.90;;;9.77;;
3095;SDS011;1558;42.700;23.360;2022-09-09T12:20:03;11.88;;;10.35;;
3095;SDS011;1558;42.700;23.360;2022-09-09T12:22:38;14.15;;;11.02;;
3095;SDS011;1558;42.700;23.360;2022-09-09T12:25:18;10.60;;;9.65;;
3095;SDS011;1558;42.700;23.360;2022-09-09T12:27:59;11.55;;;10.45;;
3095;SDS011;1558;42.700;23.360;2022-09-09T12:30:34;11.98;;;10.75;;
3095;SDS011;1558;42.700;23.360;2022-09-09T12:33:10;12.75;;;10.55;;
3095;SDS011;1558;42.700;23.360;2022-09-09T12:35:42;12.93;;;10.40;;
3095;SDS011;1558;42.700;23.360;2022-09-09T12:38:14;13.48;;;11.07;;
3095;SDS011;1558;42.700;23.360;2022-09-09T12:40:53;15.80;;;11.57;;
3095;SDS011;1558;42.700;23.360;2022-09-09T12:43:24;11.98;;;10.57;;
3095;SDS011;1558;42.700;23.360;2022-09-09T12:45:54;12.07;;;11.02;;
3095;SDS011;1558;42.700;23.360;2022-09-09T12:48:31;11.75;;;10.50;;
3095;SDS011;1558;42.700;23.360;2022-09-09T12:51:04;14.50;;;10.98;;
3095;SDS011;1558;42.700;23.360;2022-09-09T12:53:41;11.20;;;10.18;;
3095;SDS011;1558;42.700;23.360;2022-09-09T12:56:17;11.38;;;10.38;;
3095;SDS011;1558;42.700;23.360;2022-09-09T12:58:47;12.70;;;10.35;;
3095;SDS011;1558;42.700;23.360;2022-09-09T13:01:21;14.13;;;10.73;;
3095;SDS011;1558;42.700;23.360;2022-09-09T13:03:51;11.68;;;10.73;;
3095;SDS011;1558;42.700;23.360;2022-09-09T13:06:21;13.85;;;10.15;;
3095;SDS011;1558;42.700;23.360;2022-09-09T13:08:55;13.07;;;9.85;;
3095;SDS011;1558;42.700;23.360;2022-09-09T13:11:26;13.30;;;12.00;;
3095;SDS011;1558;42.700;23.360;2022-09-09T13:13:58;11.70;;;10.60;;
3095;SDS011;1558;42.700;23.360;2022-09-09T13:16:27;16.73;;;11.30;;
3095;SDS011;1558;42.700;23.360;2022-09-09T13:18:59;16.27;;;12.60;;
3095;SDS011;1558;42.700;23.360;2022-09-09T13:21:33;12.82;;;11.48;;
3095;SDS011;1558;42.700;23.360;2022-09-09T13:24:02;12.23;;;10.90;;
3095;SDS011;1558;42.700;23.360;2022-09-09T13:26:34;12.95;;;11.10;;
3095;SDS011;1558;42.700;23.360;2022-09-09T13:29:09;11.52;;;10.23;;
3095;SDS011;1558;42.700;23.360;2022-09-09T13:31:45;11.52;;;10.43;;
3095;SDS011;1558;42.700;23.360;2022-09-09T13:34:13;13.77;;;11.75;;
3095;SDS011;1558;42.700;23.360;2022-09-09T13:36:55;14.80;;;12.90;;
3095;SDS011;1558;42.700;23.360;2022-09-09T13:39:28;14.32;;;12.65;;
3095;SDS011;1558;42.700;23.360;2022-09-09T13:41:56;10.80;;;9.57;;
3095;SDS011;1558;42.700;23.360;2022-09-09T13:44:25;11.07;;;9.80;;
3095;SDS011;1558;42.700;23.360;2022-09-09T13:46:59;13.90;;;12.50;;
3095;SDS011;1558;42.700;23.360;2022-09-09T13:49:35;12.07;;;10.88;;
3095;SDS011;1558;42.700;23.360;2022-09-09T13:52:05;14.95;;;13.18;;
3095;SDS011;1558;42.700;23.360;2022-09-09T13:54:37;12.07;;;10.85;;
3095;SDS011;1558;42.700;23.360;2022-09-09T13:57:05;13.02;;;11.00;;
3095;SDS011;1558;42.700;23.360;2022-09-09T13:59:43;12.68;;;10.43;;
3095;SDS011;1558;42.700;23.360;2022-09-09T14:02:31;12.82;;;11.18;;
3095;SDS011;1558;42.700;23.360;2022-09-09T14:05:00;13.18;;;10.98;;
3095;SDS011;1558;42.700;23.360;2022-09-09T14:07:29;14.73;;;11.70;;
3095;SDS011;1558;42.700;23.360;2022-09-09T14:09:58;11.70;;;10.55;;
3095;SDS011;1558;42.700;23.360;2022-09-09T14:12:26;13.82;;;12.52;;
3095;SDS011;1558;42.700;23.360;2022-09-09T14:14:54;12.13;;;10.88;;
3095;SDS011;1558;42.700;23.360;2022-09-09T14:17:22;12.20;;;10.95;;
3095;SDS011;1558;42.700;23.360;2022-09-09T14:19:51;14.15;;;12.52;;
3095;SDS011;1558;42.700;23.360;2022-09-09T14:22:19;11.27;;;9.98;;
3095;SDS011;1558;42.700;23.360;2022-09-09T14:24:48;10.82;;;9.07;;
3095;SDS011;1558;42.700;23.360;2022-09-09T14:27:17;12.70;;;11.48;;
3095;SDS011;1558;42.700;23.360;2022-09-09T14:29:46;13.43;;;11.98;;
3095;SDS011;1558;42.700;23.360;2022-09-09T14:32:13;10.43;;;9.30;;
3095;SDS011;1558;42.700;23.360;2022-09-09T14:34:41;12.85;;;10.20;;
3095;SDS011;1558;42.700;23.360;2022-09-09T14:37:09;14.65;;;10.13;;
3095;SDS011;1558;42.700;23.360;2022-09-09T14:39:37;11.75;;;10.18;;
3095;SDS011;1558;42.700;23.360;2022-09-09T14:42:07;11.27;;;10.00;;
3095;SDS011;1558;42.700;23.360;2022-09-09T14:44:37;12.80;;;9.30;;
3095;SDS011;1558;42.700;23.360;2022-09-09T14:47:05;12.07;;;9.25;;
3095;SDS011;1558;42.700;23.360;2022-09-09T14:49:34;10.73;;;9.25;;
3095;SDS011;1558;42.700;23.360;2022-09-09T14:52:02;14.55;;;9.25;;
3095;SDS011;1558;42.700;23.360;2022-09-09T14:54:31;11.70;;;10.48;;
3095;SDS011;1558;42.700;23.360;2022-09-09T14:56:59;11.88;;;10.57;;
3095;SDS011;1558;42.700;23.360;2022-09-09T14:59:28;13.82;;;10.25;;
3095;SDS011;1558;42.700;23.360;2022-09-09T15:01:56;16.48;;;11.45;;
3095;SDS011;1558;42.700;23.360;2022-09-09T15:04:24;11.60;;;9.93;;
3095;SDS011;1558;42.700;23.360;2022-09-09T15:06:53;14.25;;;11.80;;
3095;SDS011;1558;42.700;23.360;2022-09-09T15:09:21;10.45;;;9.45;;
3095;SDS011;1558;42.700;23.360;2022-09-09T15:11:49;10.10;;;9.00;;
3095;SDS011;1558;42.700;23.360;2022-09-09T15:14:17;11.18;;;9.50;;
3095;SDS011;1558;42.700;23.360;2022-09-09T15:16:52;11.88;;;10.77;;
3095;SDS011;1558;42.700;23.360;2022-09-09T15:19:20;12.30;;;10.57;;
3095;SDS011;1558;42.700;23.360;2022-09-09T15:21:48;11.43;;;8.95;;
3095;SDS011;1558;42.700;23.360;2022-09-09T15:24:16;10.52;;;8.40;;